Time;durP1;ratioP1;P1;durP2;ratioP2;P2;SDS_P1;SDS_P2;PMS_P1;PMS_P2;Temp;Humidity;BMP_temperature;BMP_pressure;BME280_temperature;BME280_humidity;BME280_pressure;Samples;Min_cycle;Max_cycle;Signal;HPM_P1;HPM_P2
2022/07/27 00:00:32;;;;;;;;;;;12.70;99.90;;;;;;5105077;27;20401;-56
2022/07/27 00:03:12;;;;;;;;;;;12.70;99.90;;;;;;5125109;27;20635;-56
2022/07/27 00:05:52;;;;;;;;;;;12.50;99.90;;;;;;5111469;27;19926;-56
2022/07/27 00:08:32;;;;;;;;;;;12.40;99.90;;;;;;5104873;27;19918;-56
2022/07/27 00:11:11;;;;;;;;;;;12.30;99.90;;;;;;5125504;27;19918;-56
2022/07/27 00:13:51;;;;;;;;;;;12.20;99.90;;;;;;5126105;27;20107;-56
2022/07/27 00:16:31;;;;;;;;;;;12.10;99.90;;;;;;5124869;27;20300;-56
2022/07/27 00:19:11;;;;;;;;;;;12.00;99.90;;;;;;5125204;27;19912;-56
2022/07/27 00:21:51;;;;;;;;;;;11.90;99.90;;;;;;5125545;27;19912;-56
2022/07/27 00:24:30;;;;;;;;;;;11.90;99.90;;;;;;5123922;27;19926;-56
2022/07/27 00:27:10;;;;;;;;;;;11.80;99.90;;;;;;5124284;27;19916;-56
2022/07/27 00:29:50;;;;;;;;;;;11.80;99.90;;;;;;5125773;27;19916;-56
2022/07/27 00:32:30;;;;;;;;;;;11.90;99.90;;;;;;5105407;27;19918;-56
2022/07/27 00:35:10;;;;;;;;;;;11.90;99.90;;;;;;5125454;27;19946;-56
2022/07/27 00:37:51;;;;;;;;;;;11.80;99.90;;;;;;5104095;27;19920;-56
2022/07/27 00:40:31;;;;;;;;;;;11.80;99.90;;;;;;5125728;27;20274;-56
2022/07/27 00:43:11;;;;;;;;;;;11.70;99.90;;;;;;5104960;27;20466;-56
2022/07/27 00:45:51;;;;;;;;;;;11.70;99.90;;;;;;5112046;27;19912;-56
2022/07/27 00:48:30;;;;;;;;;;;11.60;99.90;;;;;;5125304;27;19912;-56
2022/07/27 00:51:11;;;;;;;;;;;11.60;99.90;;;;;;5125057;27;19915;-56
2022/07/27 00:53:51;;;;;;;;;;;11.60;99.90;;;;;;5125563;27;19918;-56
2022/07/27 00:56:32;;;;;;;;;;;11.60;99.90;;;;;;5124674;27;20220;-56
2022/07/27 00:59:12;;;;;;;;;;;11.70;99.90;;;;;;5105059;27;19945;-57
2022/07/27 01:01:53;;;;;;;;;;;11.70;99.90;;;;;;5104895;27;20399;-56
2022/07/27 01:04:33;;;;;;;;;;;11.60;99.90;;;;;;5123910;27;19923;-57
2022/07/27 01:07:13;;;;;;;;;;;11.50;99.90;;;;;;5124657;27;19920;-56
2022/07/27 01:09:58;;;;;;;;;;;11.50;99.90;;;;;;5104513;27;19946;-56
2022/07/27 01:12:39;;;;;;;;;;;11.50;99.90;;;;;;5125421;27;20217;-56
2022/07/27 01:15:18;;;;;;;;;;;11.50;99.90;;;;;;5125443;27;19922;-56
2022/07/27 01:17:58;;;;;;;;;;;11.50;99.90;;;;;;5103977;27;19953;-56
2022/07/27 01:20:39;;;;;;;;;;;11.50;99.90;;;;;;5125538;27;19916;-56
2022/07/27 01:23:19;;;;;;;;;;;11.50;99.90;;;;;;5081485;28;19912;-56
2022/07/27 01:25:59;;;;;;;;;;;11.40;99.90;;;;;;5087726;27;19923;-56
2022/07/27 01:28:42;;;;;;;;;;;11.30;99.90;;;;;;5104853;27;19919;-56
2022/07/27 01:31:22;;;;;;;;;;;11.30;99.90;;;;;;5126016;27;19912;-56
2022/07/27 01:34:03;;;;;;;;;;;11.20;99.90;;;;;;5125559;27;19922;-56
2022/07/27 01:36:44;;;;;;;;;;;11.20;99.90;;;;;;5104836;27;19935;-55
2022/07/27 01:39:25;;;;;;;;;;;11.10;99.90;;;;;;5125469;27;20380;-56
2022/07/27 01:42:05;;;;;;;;;;;10.90;99.90;;;;;;5125091;27;19916;-56
2022/07/27 01:44:44;;;;;;;;;;;10.80;99.90;;;;;;5121877;27;19927;-56
2022/07/27 01:47:25;;;;;;;;;;;10.80;99.90;;;;;;5124580;27;19918;-57
2022/07/27 01:50:06;;;;;;;;;;;10.80;99.90;;;;;;5125251;27;20381;-56
2022/07/27 01:52:47;;;;;;;;;;;10.90;99.90;;;;;;5105215;27;19945;-56
2022/07/27 01:55:27;;;;;;;;;;;10.80;99.90;;;;;;5102802;27;19923;-56
2022/07/27 01:58:08;;;;;;;;;;;10.80;99.90;;;;;;5121711;27;20303;-56
2022/07/27 02:00:49;;;;;;;;;;;10.70;99.90;;;;;;5124668;27;20206;-56
2022/07/27 02:03:30;;;;;;;;;;;10.70;99.90;;;;;;5121500;27;20373;-56
2022/07/27 02:06:10;;;;;;;;;;;10.70;99.90;;;;;;5107717;27;20156;-56
2022/07/27 02:08:49;;;;;;;;;;;10.60;99.90;;;;;;5125006;27;19912;-56
2022/07/27 02:14:27;;;;;;;;;;;10.70;99.90;;;;;;5123859;27;19946;-56
2022/07/27 02:17:06;;;;;;;;;;;10.70;99.90;;;;;;5104075;27;19916;-56
2022/07/27 02:19:46;;;;;;;;;;;10.70;99.90;;;;;;5104742;27;19916;-56
2022/07/27 02:22:26;;;;;;;;;;;10.60;99.90;;;;;;5125708;27;19925;-56
2022/07/27 02:25:07;;;;;;;;;;;10.50;99.90;;;;;;5118300;27;19912;-56
2022/07/27 02:27:47;;;;;;;;;;;10.50;99.90;;;;;;5103562;27;19916;-56
2022/07/27 02:30:27;;;;;;;;;;;10.40;99.90;;;;;;5125735;27;19915;-56
2022/07/27 02:33:07;;;;;;;;;;;10.40;99.90;;;;;;5105252;27;20293;-56
2022/07/27 02:35:47;;;;;;;;;;;10.40;99.90;;;;;;5112193;27;19923;-56
2022/07/27 02:38:27;;;;;;;;;;;10.50;99.90;;;;;;5104329;27;20326;-56
2022/07/27 02:41:06;;;;;;;;;;;10.40;99.90;;;;;;5124779;27;20319;-56
2022/07/27 02:43:46;;;;;;;;;;;10.30;99.90;;;;;;5125293;27;19911;-56
2022/07/27 02:46:26;;;;;;;;;;;10.30;99.90;;;;;;5124140;27;19980;-56
2022/07/27 02:49:06;;;;;;;;;;;10.30;99.90;;;;;;5125555;27;19918;-56
2022/07/27 02:51:48;;;;;;;;;;;10.40;99.90;;;;;;5105292;27;20315;-56
2022/07/27 02:54:31;;;;;;;;;;;10.40;99.90;;;;;;5123572;27;19922;-56
2022/07/27 02:57:12;;;;;;;;;;;10.40;99.90;;;;;;5103520;27;19928;-57
2022/07/27 02:59:52;;;;;;;;;;;10.40;99.90;;;;;;5125888;27;19918;-56
2022/07/27 03:02:31;;;;;;;;;;;10.40;99.90;;;;;;5125755;27;19911;-56
2022/07/27 03:05:11;;;;;;;;;;;10.30;99.90;;;;;;5097459;27;19916;-56
2022/07/27 03:07:51;;;;;;;;;;;10.30;99.90;;;;;;5145527;27;20286;-56
2022/07/27 03:10:31;;;;;;;;;;;10.20;99.90;;;;;;5125366;27;19912;-56
2022/07/27 03:13:11;;;;;;;;;;;10.20;99.90;;;;;;5124782;27;19911;-56
2022/07/27 03:15:51;;;;;;;;;;;10.20;99.90;;;;;;5111644;27;20328;-57
2022/07/27 03:18:30;;;;;;;;;;;10.30;99.90;;;;;;5125698;27;19916;-57
2022/07/27 03:21:10;;;;;;;;;;;10.30;99.90;;;;;;5124881;27;19915;-58
2022/07/27 03:23:50;;;;;;;;;;;10.20;99.90;;;;;;5102388;27;19919;-58
2022/07/27 03:26:32;;;;;;;;;;;10.10;99.90;;;;;;5124110;27;19911;-58
2022/07/27 03:29:12;;;;;;;;;;;10.20;99.90;;;;;;5125328;27;20399;-57
2022/07/27 03:31:51;;;;;;;;;;;10.30;99.90;;;;;;5125520;27;20406;-57
2022/07/27 03:34:31;;;;;;;;;;;10.40;99.90;;;;;;5123460;27;19916;-57
2022/07/27 03:37:11;;;;;;;;;;;10.40;99.90;;;;;;5103125;27;19914;-57
2022/07/27 03:39:51;;;;;;;;;;;10.40;99.90;;;;;;5146428;27;19911;-57
2022/07/27 03:42:31;;;;;;;;;;;10.40;99.90;;;;;;5126738;27;19918;-57
2022/07/27 03:45:11;;;;;;;;;;;10.40;99.90;;;;;;5119698;27;19922;-56
2022/07/27 03:47:52;;;;;;;;;;;10.40;99.90;;;;;;5086003;28;19916;-57
2022/07/27 03:50:32;;;;;;;;;;;10.40;99.90;;;;;;5127258;27;19918;-57
2022/07/27 03:53:11;;;;;;;;;;;10.40;99.90;;;;;;5126954;27;20280;-57
2022/07/27 03:55:51;;;;;;;;;;;10.60;99.90;;;;;;5092940;27;19926;-56
2022/07/27 03:58:31;;;;;;;;;;;10.60;99.90;;;;;;5086245;28;19913;-56
2022/07/27 04:01:11;;;;;;;;;;;10.70;99.90;;;;;;5127465;27;19912;-57
2022/07/27 04:03:51;;;;;;;;;;;10.80;99.90;;;;;;5127230;27;19922;-56
2022/07/27 04:06:31;;;;;;;;;;;10.90;99.90;;;;;;5103519;27;19916;-56
2022/07/27 04:09:10;;;;;;;;;;;11.00;99.90;;;;;;5124547;27;19924;-57
2022/07/27 04:11:50;;;;;;;;;;;11.00;99.90;;;;;;5089925;27;19927;-57
2022/07/27 04:14:30;;;;;;;;;;;11.10;99.90;;;;;;5127067;27;19911;-56
2022/07/27 04:17:10;;;;;;;;;;;11.10;99.90;;;;;;5086189;28;19916;-57
2022/07/27 04:19:50;;;;;;;;;;;11.20;99.90;;;;;;5106953;27;20439;-56
2022/07/27 04:22:30;;;;;;;;;;;11.30;99.90;;;;;;5127168;27;20274;-56
2022/07/27 04:25:10;;;;;;;;;;;11.50;99.90;;;;;;5099184;27;19927;-57
2022/07/27 04:27:53;;;;;;;;;;;11.60;99.90;;;;;;5106105;27;20338;-57
2022/07/27 04:30:32;;;;;;;;;;;11.80;99.90;;;;;;5127430;27;19918;-56
2022/07/27 04:33:12;;;;;;;;;;;12.00;99.90;;;;;;5134583;27;19912;-56
2022/07/27 04:35:52;;;;;;;;;;;12.20;99.90;;;;;;5093635;27;19970;-56
2022/07/27 04:38:32;;;;;;;;;;;12.40;99.90;;;;;;5127492;27;19912;-56
2022/07/27 04:41:12;;;;;;;;;;;12.60;99.90;;;;;;5126993;27;20278;-56
2022/07/27 04:43:51;;;;;;;;;;;12.70;99.90;;;;;;5126944;27;19959;-56
2022/07/27 04:46:31;;;;;;;;;;;12.80;99.90;;;;;;5127215;27;19912;-57
2022/07/27 04:49:11;;;;;;;;;;;13.00;99.90;;;;;;5106870;27;19953;-56
2022/07/27 04:51:51;;;;;;;;;;;13.20;99.90;;;;;;5127895;27;19919;-55
2022/07/27 04:54:33;;;;;;;;;;;13.70;99.90;;;;;;5125852;27;19926;-56
2022/07/27 04:57:12;;;;;;;;;;;14.40;99.90;;;;;;5106225;27;19945;-56
2022/07/27 04:59:52;;;;;;;;;;;15.70;99.90;;;;;;5106681;27;19954;-56
2022/07/27 05:02:32;;;;;;;;;;;16.90;99.90;;;;;;5131433;27;20039;-56
2022/07/27 05:05:12;;;;;;;;;;;17.90;99.90;;;;;;5126957;27;20312;-56
2022/07/27 05:07:51;;;;;;;;;;;18.80;99.90;;;;;;5106435;27;19926;-56
2022/07/27 05:10:31;;;;;;;;;;;19.30;99.90;;;;;;5107186;27;19919;-56
2022/07/27 05:13:11;;;;;;;;;;;19.30;99.90;;;;;;5127387;27;19912;-55
2022/07/27 05:15:51;;;;;;;;;;;19.00;99.90;;;;;;5114526;27;19919;-56
2022/07/27 05:18:31;;;;;;;;;;;19.10;99.90;;;;;;5106980;27;19916;-56
2022/07/27 05:21:11;;;;;;;;;;;19.50;99.90;;;;;;5127347;27;20388;-56
2022/07/27 05:23:50;;;;;;;;;;;19.80;99.90;;;;;;5127396;27;19916;-56
2022/07/27 05:26:30;;;;;;;;;;;20.00;99.90;;;;;;5126084;27;19912;-56
2022/07/27 05:29:12;;;;;;;;;;;20.30;99.90;;;;;;5125905;27;19934;-56
2022/07/27 05:31:51;;;;;;;;;;;20.30;99.90;;;;;;5126278;27;20281;-56
2022/07/27 05:34:31;;;;;;;;;;;20.00;99.90;;;;;;5124834;27;19934;-56
2022/07/27 05:37:11;;;;;;;;;;;19.40;99.90;;;;;;5105060;27;19926;-55
2022/07/27 05:39:51;;;;;;;;;;;19.10;99.90;;;;;;5125399;27;19919;-56
2022/07/27 05:42:31;;;;;;;;;;;18.80;99.90;;;;;;5125566;27;19918;-55
2022/07/27 05:45:11;;;;;;;;;;;18.60;99.90;;;;;;5117584;27;20321;-56
2022/07/27 05:47:53;;;;;;;;;;;18.60;99.90;;;;;;5124661;27;19918;-56
2022/07/27 05:50:33;;;;;;;;;;;18.90;99.90;;;;;;5124803;27;20300;-56
2022/07/27 05:53:13;;;;;;;;;;;19.20;99.90;;;;;;5124923;27;19920;-56
2022/07/27 05:55:53;;;;;;;;;;;19.60;99.90;;;;;;5090625;27;19927;-56
2022/07/27 05:58:33;;;;;;;;;;;19.70;99.90;;;;;;5104485;27;19949;-56
2022/07/27 06:01:13;;;;;;;;;;;19.50;99.90;;;;;;5104287;27;20156;-55
2022/07/27 06:03:53;;;;;;;;;;;19.00;99.90;;;;;;5104739;27;20419;-56
2022/07/27 06:09:30;;;;;;;;;;;18.60;99.90;;;;;;5125330;27;19918;-56
2022/07/27 06:12:12;;;;;;;;;;;18.80;99.90;;;;;;5104726;27;19926;-56
2022/07/27 06:14:53;;;;;;;;;;;19.00;99.90;;;;;;5120730;27;19954;-55
2022/07/27 06:17:33;;;;;;;;;;;19.20;99.90;;;;;;5126324;27;19916;-56
2022/07/27 06:20:13;;;;;;;;;;;19.30;99.90;;;;;;5105880;27;20415;-55
2022/07/27 06:22:53;;;;;;;;;;;19.30;99.90;;;;;;5126899;27;20295;-55
2022/07/27 06:25:34;;;;;;;;;;;19.30;99.90;;;;;;5116180;27;19912;-56
2022/07/27 06:28:13;;;;;;;;;;;19.50;99.90;;;;;;5126888;27;19920;-56
2022/07/27 06:30:53;;;;;;;;;;;19.70;99.90;;;;;;5127089;27;20270;-56
2022/07/27 06:33:34;;;;;;;;;;;19.90;99.90;;;;;;5106272;27;19926;-56
2022/07/27 06:36:14;;;;;;;;;;;20.20;99.90;;;;;;5090290;27;19913;-56
2022/07/27 06:38:55;;;;;;;;;;;20.30;99.90;;;;;;5106970;27;20196;-55
2022/07/27 06:41:34;;;;;;;;;;;20.40;99.90;;;;;;5127013;27;20288;-55
2022/07/27 06:44:15;;;;;;;;;;;20.30;99.90;;;;;;5106036;27;19918;-55
2022/07/27 06:46:55;;;;;;;;;;;20.50;99.90;;;;;;5103918;27;19981;-56
2022/07/27 06:49:35;;;;;;;;;;;20.80;99.90;;;;;;5104895;27;19961;-56
2022/07/27 06:52:15;;;;;;;;;;;21.20;99.90;;;;;;5145945;27;20132;-56
2022/07/27 06:54:55;;;;;;;;;;;21.70;99.90;;;;;;5120501;27;19918;-56
2022/07/27 06:57:35;;;;;;;;;;;22.00;99.90;;;;;;5123897;27;20401;-56
2022/07/27 07:00:15;;;;;;;;;;;22.10;99.90;;;;;;5124942;27;19922;-56
2022/07/27 07:02:55;;;;;;;;;;;22.10;99.90;;;;;;5125457;27;19918;-56
2022/07/27 07:05:41;;;;;;;;;;;22.00;99.90;;;;;;5114109;27;19919;-56
2022/07/27 07:08:21;;;;;;;;;;;22.30;99.90;;;;;;5125928;27;19912;-56
2022/07/27 07:11:02;;;;;;;;;;;22.50;99.90;;;;;;5125315;27;19911;-56
2022/07/27 07:13:42;;;;;;;;;;;22.70;99.90;;;;;;5125252;27;19918;-56
2022/07/27 07:16:22;;;;;;;;;;;22.80;99.90;;;;;;5124538;27;19918;-56
2022/07/27 07:19:13;;;;;;;;;;;22.90;99.90;;;;;;5104754;27;19934;-56
2022/07/27 07:21:53;;;;;;;;;;;23.10;99.90;;;;;;5105837;27;19918;-56
2022/07/27 07:24:33;;;;;;;;;;;23.10;99.90;;;;;;5125161;27;19918;-56
2022/07/27 07:27:13;;;;;;;;;;;23.10;99.90;;;;;;5125060;27;20303;-56
2022/07/27 07:29:53;;;;;;;;;;;23.00;99.90;;;;;;5105269;27;19918;-56
2022/07/27 07:32:32;;;;;;;;;;;23.10;99.90;;;;;;5125776;27;19911;-56
2022/07/27 07:35:12;;;;;;;;;;;22.90;99.90;;;;;;5118331;27;19912;-56
2022/07/27 07:37:52;;;;;;;;;;;22.90;99.90;;;;;;5125583;27;19911;-56
2022/07/27 07:40:32;;;;;;;;;;;22.70;99.90;;;;;;5126661;27;20371;-56
2022/07/27 07:43:12;;;;;;;;;;;22.50;99.90;;;;;;5125371;27;20408;-56
2022/07/27 07:45:54;;;;;;;;;;;22.30;99.90;;;;;;5112277;27;19918;-57
2022/07/27 07:48:35;;;;;;;;;;;22.20;99.90;;;;;;5125819;27;19922;-56
2022/07/27 07:51:14;;;;;;;;;;;22.10;99.90;;;;;;5125954;27;19918;-56
2022/07/27 07:53:54;;;;;;;;;;;22.00;99.90;;;;;;5124914;27;19919;-56
2022/07/27 07:56:34;;;;;;;;;;;21.90;99.90;;;;;;5122498;27;19915;-56
2022/07/27 07:59:14;;;;;;;;;;;21.70;99.90;;;;;;5122078;27;19938;-56
2022/07/27 08:01:54;;;;;;;;;;;21.50;99.90;;;;;;5123018;27;20426;-56
2022/07/27 08:04:33;;;;;;;;;;;21.60;99.90;;;;;;5123514;27;19912;-56
2022/07/27 08:07:13;;;;;;;;;;;21.70;99.90;;;;;;5124292;27;19938;-56
2022/07/27 08:09:53;;;;;;;;;;;22.00;99.90;;;;;;5105303;27;19912;-57
2022/07/27 08:12:33;;;;;;;;;;;22.20;99.90;;;;;;5126254;27;20315;-56
2022/07/27 08:15:14;;;;;;;;;;;22.00;99.90;;;;;;5118481;27;19920;-56
2022/07/27 08:17:54;;;;;;;;;;;21.90;99.90;;;;;;5125814;27;19912;-56
2022/07/27 08:20:34;;;;;;;;;;;21.70;99.90;;;;;;5107089;27;19912;-56
2022/07/27 08:23:14;;;;;;;;;;;21.60;99.90;;;;;;5127187;27;19933;-56
2022/07/27 08:25:54;;;;;;;;;;;21.50;99.90;;;;;;5113491;27;19912;-56
2022/07/27 08:28:34;;;;;;;;;;;21.50;99.90;;;;;;5103851;27;20284;-56
2022/07/27 08:31:13;;;;;;;;;;;21.60;99.90;;;;;;5105450;27;19962;-56
2022/07/27 08:33:53;;;;;;;;;;;21.70;99.90;;;;;;5125290;27;20356;-56
2022/07/27 08:36:33;;;;;;;;;;;22.00;99.90;;;;;;5121952;27;19954;-56
2022/07/27 08:39:13;;;;;;;;;;;22.40;99.90;;;;;;5125650;27;20394;-56
2022/07/27 08:41:54;;;;;;;;;;;22.90;99.90;;;;;;5125836;27;19911;-55
2022/07/27 08:44:35;;;;;;;;;;;23.40;99.90;;;;;;5104074;27;19918;-56
2022/07/27 08:47:16;;;;;;;;;;;23.90;99.90;;;;;;5105553;27;19926;-56
2022/07/27 08:49:55;;;;;;;;;;;24.40;99.90;;;;;;5126501;27;19912;-56
2022/07/27 08:52:35;;;;;;;;;;;24.40;97.00;;;;;;5126164;27;19912;-56
2022/07/27 08:55:15;;;;;;;;;;;24.20;98.00;;;;;;5117594;27;19919;-56
2022/07/27 08:57:55;;;;;;;;;;;24.20;99.90;;;;;;5125304;27;20352;-56
2022/07/27 09:00:35;;;;;;;;;;;24.60;96.30;;;;;;5105703;27;20021;-56
2022/07/27 09:03:17;;;;;;;;;;;24.60;95.10;;;;;;5125974;27;19912;-56
2022/07/27 09:05:58;;;;;;;;;;;24.90;93.10;;;;;;5090740;27;19913;-57
2022/07/27 09:08:40;;;;;;;;;;;24.90;92.30;;;;;;5105054;27;19938;-56
2022/07/27 09:11:20;;;;;;;;;;;24.40;95.90;;;;;;5126023;27;19922;-56
2022/07/27 09:14:02;;;;;;;;;;;23.80;98.50;;;;;;5125338;27;19912;-56
2022/07/27 09:16:42;;;;;;;;;;;23.10;99.90;;;;;;5192628;22;19927;-53
2022/07/27 09:19:21;;;;;;;;;;;22.80;99.90;;;;;;5124389;27;20292;-54
2022/07/27 09:22:01;;;;;;;;;;;22.70;99.90;;;;;;5124576;27;20296;-54
2022/07/27 09:25:00;;;;;;;;;;;22.70;99.90;;;;;;5124871;27;19926;-54
2022/07/27 09:27:44;;;;;;;;;;;22.80;99.90;;;;;;5123835;27;19924;-54
2022/07/27 09:30:26;;;;;;;;;;;23.20;99.90;;;;;;5125052;27;19930;-54
2022/07/27 09:33:06;;;;;;;;;;;23.50;99.90;;;;;;5124726;27;20280;-54
2022/07/27 09:35:57;;;;;;;;;;;23.80;99.90;;;;;;5097257;27;19977;-54
2022/07/27 09:38:37;;;;;;;;;;;23.70;99.90;;;;;;5125320;27;19916;-54
2022/07/27 09:41:17;;;;;;;;;;;23.20;99.90;;;;;;5103144;27;20304;-54
2022/07/27 09:43:57;;;;;;;;;;;22.60;99.90;;;;;;5124679;27;19912;-54
2022/07/27 09:46:38;;;;;;;;;;;22.20;99.90;;;;;;5090705;27;19931;-54
2022/07/27 09:49:28;;;;;;;;;;;21.80;99.90;;;;;;5145916;27;19918;-54
2022/07/27 09:52:07;;;;;;;;;;;21.60;99.90;;;;;;5125322;27;19911;-54
2022/07/27 09:54:47;;;;;;;;;;;21.60;99.90;;;;;;5125345;27;19918;-54
2022/07/27 09:57:27;;;;;;;;;;;21.60;99.90;;;;;;5123926;27;19929;-54
2022/07/27 10:00:12;;;;;;;;;;;21.60;99.90;;;;;;5104590;27;19918;-54
2022/07/27 10:02:52;;;;;;;;;;;21.60;99.90;;;;;;5125066;27;19915;-54
2022/07/27 10:05:31;;;;;;;;;;;21.40;99.90;;;;;;5121019;27;19912;-54
2022/07/27 10:08:11;;;;;;;;;;;21.40;99.90;;;;;;5116583;27;19912;-54
2022/07/27 10:10:51;;;;;;;;;;;21.90;99.90;;;;;;5125795;27;19918;-54
2022/07/27 10:13:31;;;;;;;;;;;23.00;99.90;;;;;;5126222;27;20164;-54
2022/07/27 10:16:13;;;;;;;;;;;24.00;99.90;;;;;;5094561;27;19969;-54
2022/07/27 10:18:59;;;;;;;;;;;25.10;98.40;;;;;;5125554;27;19967;-54
2022/07/27 10:21:41;;;;;;;;;;;25.40;90.70;;;;;;5125915;27;19923;-55
2022/07/27 10:24:27;;;;;;;;;;;25.40;85.80;;;;;;5125992;27;19916;-54
2022/07/27 10:27:19;;;;;;;;;;;25.20;84.20;;;;;;5086261;27;19917;-54
2022/07/27 10:29:59;;;;;;;;;;;25.10;89.30;;;;;;5125412;27;19919;-54
2022/07/27 10:32:42;;;;;;;;;;;25.20;78.30;;;;;;5129202;27;19918;-54
2022/07/27 10:35:32;;;;;;;;;;;25.30;78.20;;;;;;5121142;27;20301;-55
2022/07/27 10:38:16;;;;;;;;;;;25.40;74.70;;;;;;5123601;27;19953;-54
2022/07/27 10:41:11;;;;;;;;;;;25.10;74.30;;;;;;5103949;27;20320;-54
2022/07/27 10:44:11;;;;;;;;;;;24.80;75.90;;;;;;5137871;27;19922;-54
2022/07/27 10:46:53;;;;;;;;;;;24.50;78.50;;;;;;5108273;27;19912;-54
2022/07/27 10:49:36;;;;;;;;;;;24.20;83.40;;;;;;5103845;27;20423;-54
2022/07/27 10:52:39;;;;;;;;;;;24.00;88.20;;;;;;5124625;27;20267;-54
2022/07/27 10:55:37;;;;;;;;;;;24.00;90.50;;;;;;5124128;27;19918;-54
2022/07/27 10:58:35;;;;;;;;;;;23.60;92.10;;;;;;5123933;27;19926;-54
2022/07/27 11:01:19;;;;;;;;;;;23.20;94.90;;;;;;5144810;27;19916;-54
2022/07/27 11:04:07;;;;;;;;;;;22.70;97.80;;;;;;5122874;27;19993;-54
2022/07/27 11:06:48;;;;;;;;;;;22.40;99.90;;;;;;5107056;27;19920;-54
2022/07/27 11:09:36;;;;;;;;;;;22.40;99.90;;;;;;5122587;27;19920;-54
2022/07/27 11:12:17;;;;;;;;;;;22.50;99.90;;;;;;5123519;27;19922;-54
2022/07/27 11:14:58;;;;;;;;;;;22.60;99.90;;;;;;5123122;27;19915;-54
2022/07/27 11:17:48;;;;;;;;;;;22.90;99.90;;;;;;5143373;27;20423;-54
2022/07/27 11:20:28;;;;;;;;;;;23.20;99.90;;;;;;5124329;27;19912;-54
2022/07/27 11:23:18;;;;;;;;;;;23.40;95.70;;;;;;5124506;27;19911;-54
2022/07/27 11:25:59;;;;;;;;;;;23.50;93.10;;;;;;5094905;27;19931;-54
2022/07/27 11:28:39;;;;;;;;;;;23.60;93.30;;;;;;5124459;27;19918;-54
2022/07/27 11:31:20;;;;;;;;;;;23.90;93.10;;;;;;5125246;27;20474;-54
2022/07/27 11:34:00;;;;;;;;;;;24.10;92.70;;;;;;5104966;27;19930;-54
2022/07/27 11:36:42;;;;;;;;;;;24.20;85.70;;;;;;5124835;27;20195;-54
2022/07/27 11:39:24;;;;;;;;;;;23.90;85.60;;;;;;5125534;27;19916;-55
2022/07/27 11:42:04;;;;;;;;;;;23.80;82.50;;;;;;5121876;27;19969;-54
2022/07/27 11:44:45;;;;;;;;;;;23.80;81.10;;;;;;5123393;27;20309;-54
2022/07/27 11:47:27;;;;;;;;;;;23.90;82.60;;;;;;5124449;27;19954;-54
2022/07/27 11:50:07;;;;;;;;;;;23.70;86.60;;;;;;5125995;27;19918;-53
2022/07/27 11:52:57;;;;;;;;;;;23.60;85.40;;;;;;5126042;27;19945;-54
2022/07/27 11:55:37;;;;;;;;;;;23.70;84.50;;;;;;5120616;27;20369;-54
2022/07/27 11:58:17;;;;;;;;;;;23.60;84.10;;;;;;5125337;27;19922;-53
2022/07/27 12:00:57;;;;;;;;;;;23.60;84.60;;;;;;5105320;27;19926;-54
2022/07/27 12:03:37;;;;;;;;;;;24.00;82.90;;;;;;5133138;27;19953;-53
2022/07/27 12:06:17;;;;;;;;;;;24.30;79.70;;;;;;5114528;27;19912;-54
2022/07/27 12:08:57;;;;;;;;;;;24.50;78.70;;;;;;5125106;27;20288;-54
2022/07/27 12:11:50;;;;;;;;;;;24.60;77.30;;;;;;5125773;27;19912;-53
2022/07/27 12:14:33;;;;;;;;;;;24.70;73.50;;;;;;5139515;27;19911;-54
2022/07/27 12:17:15;;;;;;;;;;;24.60;73.90;;;;;;5105339;27;19957;-54
2022/07/27 12:20:00;;;;;;;;;;;24.30;74.40;;;;;;5083484;28;19912;-54
2022/07/27 12:22:42;;;;;;;;;;;24.00;77.00;;;;;;5104352;27;19920;-54
2022/07/27 12:25:28;;;;;;;;;;;23.80;79.40;;;;;;5124451;27;20128;-54
2022/07/27 12:28:11;;;;;;;;;;;23.70;80.10;;;;;;5124352;27;19912;-54
2022/07/27 12:30:51;;;;;;;;;;;23.70;79.00;;;;;;5124555;27;20020;-54
2022/07/27 12:33:33;;;;;;;;;;;23.80;83.30;;;;;;5125749;27;19918;-54
2022/07/27 12:36:26;;;;;;;;;;;24.00;78.80;;;;;;5091353;27;19912;-54
2022/07/27 12:39:06;;;;;;;;;;;24.10;79.00;;;;;;5123762;27;20241;-55
2022/07/27 12:41:46;;;;;;;;;;;24.30;73.00;;;;;;5103973;27;19912;-54
2022/07/27 12:44:31;;;;;;;;;;;24.20;73.80;;;;;;5103980;27;19912;-54
2022/07/27 12:50:11;;;;;;;;;;;24.60;72.60;;;;;;5103706;27;19913;-54
2022/07/27 12:52:52;;;;;;;;;;;24.50;69.00;;;;;;5124691;27;20431;-54
2022/07/27 12:55:33;;;;;;;;;;;24.00;70.30;;;;;;5119737;27;19912;-54
2022/07/27 12:58:13;;;;;;;;;;;23.70;73.70;;;;;;5123851;27;19953;-54
2022/07/27 13:00:54;;;;;;;;;;;23.80;76.50;;;;;;5124487;27;19918;-54
2022/07/27 13:03:34;;;;;;;;;;;24.20;72.70;;;;;;5104138;27;19916;-54
2022/07/27 13:06:14;;;;;;;;;;;24.20;72.00;;;;;;5113214;27;19924;-54
2022/07/27 13:08:54;;;;;;;;;;;24.20;70.80;;;;;;5124352;27;19934;-53
2022/07/27 13:11:35;;;;;;;;;;;24.00;72.50;;;;;;5125128;27;19916;-54
2022/07/27 13:14:15;;;;;;;;;;;24.10;71.10;;;;;;5124010;27;19945;-54
2022/07/27 13:16:54;;;;;;;;;;;24.20;70.00;;;;;;5108281;27;20270;-54
2022/07/27 13:19:34;;;;;;;;;;;24.50;68.80;;;;;;5125798;27;20264;-54
2022/07/27 13:22:14;;;;;;;;;;;24.90;65.60;;;;;;5104478;27;19926;-54
2022/07/27 13:24:54;;;;;;;;;;;24.80;65.50;;;;;;5125504;27;19925;-54
2022/07/27 13:27:34;;;;;;;;;;;24.50;65.90;;;;;;5103661;27;19912;-54
2022/07/27 13:30:16;;;;;;;;;;;24.50;68.50;;;;;;5104893;27;19912;-54
2022/07/27 13:32:57;;;;;;;;;;;25.00;63.40;;;;;;5124495;27;19922;-54
2022/07/27 13:35:38;;;;;;;;;;;24.80;62.50;;;;;;5124021;27;19922;-54
2022/07/27 13:38:18;;;;;;;;;;;24.60;65.70;;;;;;5103816;27;19950;-54
2022/07/27 13:40:58;;;;;;;;;;;24.90;62.00;;;;;;5124153;27;19912;-54
2022/07/27 13:43:37;;;;;;;;;;;25.30;59.20;;;;;;5125048;27;19926;-54
2022/07/27 13:46:17;;;;;;;;;;;26.00;56.20;;;;;;5113945;27;20308;-54
2022/07/27 13:48:57;;;;;;;;;;;25.90;54.70;;;;;;5125616;27;19922;-54
2022/07/27 13:51:37;;;;;;;;;;;25.80;55.00;;;;;;5126115;27;19926;-54
2022/07/27 13:54:17;;;;;;;;;;;26.40;53.80;;;;;;5105378;27;19930;-54
2022/07/27 13:56:57;;;;;;;;;;;26.30;54.20;;;;;;5088052;27;19962;-54
2022/07/27 13:59:37;;;;;;;;;;;26.10;53.80;;;;;;5120023;27;19926;-54
2022/07/27 14:02:16;;;;;;;;;;;26.10;52.90;;;;;;5113179;27;20382;-55
2022/07/27 14:04:56;;;;;;;;;;;26.50;51.60;;;;;;5111553;27;19915;-54
2022/07/27 14:07:36;;;;;;;;;;;26.20;51.10;;;;;;5123961;27;19911;-54
2022/07/27 14:10:31;;;;;;;;;;;25.60;52.20;;;;;;5102002;27;19977;-54
2022/07/27 14:13:12;;;;;;;;;;;25.40;53.50;;;;;;5104932;27;19912;-54
2022/07/27 14:15:53;;;;;;;;;;;25.50;52.80;;;;;;5143963;27;20513;-55
2022/07/27 14:18:33;;;;;;;;;;;25.50;52.50;;;;;;5125378;27;20369;-54
2022/07/27 14:21:14;;;;;;;;;;;25.40;52.60;;;;;;5105196;27;19954;-55
2022/07/27 14:23:54;;;;;;;;;;;25.70;51.60;;;;;;5105377;27;20322;-54
2022/07/27 14:26:34;;;;;;;;;;;25.60;50.40;;;;;;5091088;27;19913;-54
2022/07/27 14:29:14;;;;;;;;;;;25.10;51.60;;;;;;5104444;27;19916;-54
2022/07/27 14:31:54;;;;;;;;;;;24.40;53.70;;;;;;5125717;27;19918;-54
2022/07/27 14:34:35;;;;;;;;;;;23.90;54.50;;;;;;5105617;27;19912;-54
2022/07/27 14:37:16;;;;;;;;;;;23.60;55.90;;;;;;5085026;27;19912;-54
2022/07/27 14:39:57;;;;;;;;;;;23.60;56.20;;;;;;5125596;27;19916;-54
2022/07/27 14:42:38;;;;;;;;;;;24.00;54.40;;;;;;5125670;27;19925;-54
2022/07/27 14:45:18;;;;;;;;;;;24.50;53.30;;;;;;5119635;27;19926;-53
2022/07/27 14:47:59;;;;;;;;;;;24.80;53.00;;;;;;5104336;27;19912;-54
2022/07/27 14:50:39;;;;;;;;;;;24.80;52.50;;;;;;5125642;27;20103;-54
2022/07/27 14:53:19;;;;;;;;;;;24.30;53.40;;;;;;5138763;27;19918;-54
2022/07/27 14:55:58;;;;;;;;;;;24.20;53.20;;;;;;5116737;27;19942;-54
2022/07/27 14:58:38;;;;;;;;;;;24.30;52.60;;;;;;5125748;27;19918;-54
2022/07/27 15:01:18;;;;;;;;;;;24.50;51.60;;;;;;5104346;27;19916;-54
2022/07/27 15:03:58;;;;;;;;;;;24.60;51.70;;;;;;5125499;27;19918;-54
2022/07/27 15:06:38;;;;;;;;;;;24.70;51.90;;;;;;5091167;27;19946;-54
2022/07/27 15:09:18;;;;;;;;;;;24.90;49.80;;;;;;5124774;27;19922;-54
2022/07/27 15:11:58;;;;;;;;;;;24.90;49.00;;;;;;5105140;27;19912;-54
2022/07/27 15:14:39;;;;;;;;;;;25.00;49.50;;;;;;5124693;27;19912;-54
2022/07/27 15:17:19;;;;;;;;;;;25.00;48.80;;;;;;5151191;22;19924;-57
2022/07/27 15:20:00;;;;;;;;;;;24.80;50.30;;;;;;5150422;27;19911;-56
2022/07/27 15:22:40;;;;;;;;;;;24.50;51.00;;;;;;5129401;27;19919;-55
2022/07/27 15:25:20;;;;;;;;;;;24.20;51.40;;;;;;5126392;27;19919;-55
2022/07/27 15:28:00;;;;;;;;;;;24.00;52.20;;;;;;5106033;27;19926;-54
2022/07/27 15:30:41;;;;;;;;;;;24.20;51.50;;;;;;5129042;27;19934;-56
2022/07/27 15:33:21;;;;;;;;;;;24.70;49.40;;;;;;5130382;27;19912;-56
2022/07/27 15:36:01;;;;;;;;;;;25.10;48.70;;;;;;5122803;27;19916;-56
2022/07/27 15:38:41;;;;;;;;;;;25.50;46.40;;;;;;5125348;27;19922;-56
2022/07/27 15:41:32;;;;;;;;;;;26.00;46.30;;;;;;5121216;27;19923;-56
2022/07/27 15:44:12;;;;;;;;;;;26.60;44.80;;;;;;5122692;27;19915;-56